sensor_id;sensor_type;location;lat;lon;timestamp;P1;durP1;ratioP1;P2;durP2;ratioP2
25301;SDS011;13243;50.888;4.724;2022-12-04T00:04:57;66.00;;;24.15;;
25301;SDS011;13243;50.888;4.724;2022-12-04T00:09:59;62.83;;;21.70;;
25301;SDS011;13243;50.888;4.724;2022-12-04T00:15:01;55.22;;;21.95;;
25301;SDS011;13243;50.888;4.724;2022-12-04T00:20:24;59.42;;;22.38;;
25301;SDS011;13243;50.888;4.724;2022-12-04T00:25:26;57.83;;;22.38;;
25301;SDS011;13243;50.888;4.724;2022-12-04T00:30:28;56.65;;;21.70;;
25301;SDS011;13243;50.888;4.724;2022-12-04T00:35:29;54.70;;;22.08;;
25301;SDS011;13243;50.888;4.724;2022-12-04T00:40:31;53.40;;;20.15;;
25301;SDS011;13243;50.888;4.724;2022-12-04T00:45:33;59.33;;;21.70;;
25301;SDS011;13243;50.888;4.724;2022-12-04T00:50:35;56.30;;;22.10;;
25301;SDS011;13243;50.888;4.724;2022-12-04T00:55:38;61.80;;;20.70;;
25301;SDS011;13243;50.888;4.724;2022-12-04T01:00:40;60.92;;;20.60;;
25301;SDS011;13243;50.888;4.724;2022-12-04T01:05:43;55.35;;;20.67;;
25301;SDS011;13243;50.888;4.724;2022-12-04T01:10:45;57.53;;;22.38;;
25301;SDS011;13243;50.888;4.724;2022-12-04T01:15:47;52.45;;;19.67;;
25301;SDS011;13243;50.888;4.724;2022-12-04T01:20:50;61.00;;;22.13;;
25301;SDS011;13243;50.888;4.724;2022-12-04T01:25:53;49.90;;;19.70;;
25301;SDS011;13243;50.888;4.724;2022-12-04T01:31:13;55.28;;;19.98;;
25301;SDS011;13243;50.888;4.724;2022-12-04T01:36:24;47.60;;;16.83;;
25301;SDS011;13243;50.888;4.724;2022-12-04T01:46:30;53.28;;;21.25;;
25301;SDS011;13243;50.888;4.724;2022-12-04T01:51:33;51.95;;;20.08;;
25301;SDS011;13243;50.888;4.724;2022-12-04T01:56:49;60.17;;;22.45;;
25301;SDS011;13243;50.888;4.724;2022-12-04T02:01:58;64.88;;;22.15;;
25301;SDS011;13243;50.888;4.724;2022-12-04T02:07:22;60.08;;;21.38;;
25301;SDS011;13243;50.888;4.724;2022-12-04T02:12:44;52.55;;;20.73;;
25301;SDS011;13243;50.888;4.724;2022-12-04T02:28:36;57.45;;;22.30;;
25301;SDS011;13243;50.888;4.724;2022-12-04T02:33:53;56.42;;;21.90;;
25301;SDS011;13243;50.888;4.724;2022-12-04T02:39:04;55.78;;;21.45;;
25301;SDS011;13243;50.888;4.724;2022-12-04T02:44:20;57.50;;;22.45;;
25301;SDS011;13243;50.888;4.724;2022-12-04T02:49:29;49.57;;;17.63;;
25301;SDS011;13243;50.888;4.724;2022-12-04T02:54:49;45.30;;;16.55;;
25301;SDS011;13243;50.888;4.724;2022-12-04T02:59:55;58.58;;;21.95;;
25301;SDS011;13243;50.888;4.724;2022-12-04T03:04:59;60.55;;;22.38;;
25301;SDS011;13243;50.888;4.724;2022-12-04T03:10:16;62.85;;;22.30;;
25301;SDS011;13243;50.888;4.724;2022-12-04T03:15:25;56.70;;;22.17;;
25301;SDS011;13243;50.888;4.724;2022-12-04T03:20:34;58.78;;;22.35;;
25301;SDS011;13243;50.888;4.724;2022-12-04T03:25:40;60.47;;;22.58;;
25301;SDS011;13243;50.888;4.724;2022-12-04T03:30:56;58.63;;;22.67;;
25301;SDS011;13243;50.888;4.724;2022-12-04T03:36:06;42.83;;;16.87;;
25301;SDS011;13243;50.888;4.724;2022-12-04T03:41:35;50.95;;;20.95;;
25301;SDS011;13243;50.888;4.724;2022-12-04T03:52:04;65.10;;;23.85;;
25301;SDS011;13243;50.888;4.724;2022-12-04T03:57:14;62.97;;;23.05;;
25301;SDS011;13243;50.888;4.724;2022-12-04T04:02:21;55.13;;;21.80;;
25301;SDS011;13243;50.888;4.724;2022-12-04T04:07:27;60.42;;;22.60;;
25301;SDS011;13243;50.888;4.724;2022-12-04T04:12:37;48.77;;;20.07;;
25301;SDS011;13243;50.888;4.724;2022-12-04T04:17:45;64.95;;;25.73;;
25301;SDS011;13243;50.888;4.724;2022-12-04T04:23:07;60.63;;;23.50;;
25301;SDS011;13243;50.888;4.724;2022-12-04T04:28:40;69.72;;;25.35;;
25301;SDS011;13243;50.888;4.724;2022-12-04T04:39:19;59.97;;;23.48;;
25301;SDS011;13243;50.888;4.724;2022-12-04T04:49:46;53.42;;;22.27;;
25301;SDS011;13243;50.888;4.724;2022-12-04T04:54:50;56.25;;;21.50;;
25301;SDS011;13243;50.888;4.724;2022-12-04T04:59:52;62.28;;;23.30;;
25301;SDS011;13243;50.888;4.724;2022-12-04T05:04:54;66.70;;;24.95;;
25301;SDS011;13243;50.888;4.724;2022-12-04T05:09:56;60.28;;;22.83;;
25301;SDS011;13243;50.888;4.724;2022-12-04T05:14:58;64.18;;;24.15;;
25301;SDS011;13243;50.888;4.724;2022-12-04T05:20:01;63.97;;;22.17;;
25301;SDS011;13243;50.888;4.724;2022-12-04T05:25:04;59.63;;;24.55;;
25301;SDS011;13243;50.888;4.724;2022-12-04T05:30:06;57.15;;;21.63;;
25301;SDS011;13243;50.888;4.724;2022-12-04T05:35:08;59.28;;;22.80;;
25301;SDS011;13243;50.888;4.724;2022-12-04T05:40:11;59.92;;;22.42;;
25301;SDS011;13243;50.888;4.724;2022-12-04T05:45:13;66.80;;;22.83;;
25301;SDS011;13243;50.888;4.724;2022-12-04T05:50:15;56.83;;;20.88;;
25301;SDS011;13243;50.888;4.724;2022-12-04T05:55:17;61.70;;;21.85;;
25301;SDS011;13243;50.888;4.724;2022-12-04T06:00:19;65.82;;;22.88;;
25301;SDS011;13243;50.888;4.724;2022-12-04T06:05:21;60.67;;;23.90;;
25301;SDS011;13243;50.888;4.724;2022-12-04T06:10:22;65.18;;;23.05;;
25301;SDS011;13243;50.888;4.724;2022-12-04T06:15:24;63.40;;;25.38;;
25301;SDS011;13243;50.888;4.724;2022-12-04T06:20:26;67.88;;;24.30;;
25301;SDS011;13243;50.888;4.724;2022-12-04T06:25:28;65.95;;;23.33;;
25301;SDS011;13243;50.888;4.724;2022-12-04T06:30:30;60.75;;;23.02;;
25301;SDS011;13243;50.888;4.724;2022-12-04T06:35:34;63.08;;;22.02;;
25301;SDS011;13243;50.888;4.724;2022-12-04T06:40:38;60.05;;;22.88;;
25301;SDS011;13243;50.888;4.724;2022-12-04T06:45:40;61.95;;;23.40;;
25301;SDS011;13243;50.888;4.724;2022-12-04T06:50:42;61.53;;;22.48;;
25301;SDS011;13243;50.888;4.724;2022-12-04T06:55:47;68.90;;;25.58;;
25301;SDS011;13243;50.888;4.724;2022-12-04T07:00:49;66.63;;;25.63;;
25301;SDS011;13243;50.888;4.724;2022-12-04T07:05:51;66.25;;;26.90;;
25301;SDS011;13243;50.888;4.724;2022-12-04T07:10:53;61.58;;;23.52;;
25301;SDS011;13243;50.888;4.724;2022-12-04T07:16:00;70.65;;;25.23;;
25301;SDS011;13243;50.888;4.724;2022-12-04T07:21:08;67.10;;;25.23;;
25301;SDS011;13243;50.888;4.724;2022-12-04T07:26:12;71.65;;;26.65;;
25301;SDS011;13243;50.888;4.724;2022-12-04T07:31:16;65.50;;;24.55;;
25301;SDS011;13243;50.888;4.724;2022-12-04T07:36:20;65.13;;;23.80;;
25301;SDS011;13243;50.888;4.724;2022-12-04T07:41:23;71.30;;;24.80;;
25301;SDS011;13243;50.888;4.724;2022-12-04T07:46:25;62.05;;;23.95;;
25301;SDS011;13243;50.888;4.724;2022-12-04T07:51:28;61.10;;;23.20;;
25301;SDS011;13243;50.888;4.724;2022-12-04T07:56:31;63.17;;;23.42;;
25301;SDS011;13243;50.888;4.724;2022-12-04T08:01:33;61.38;;;22.98;;
25301;SDS011;13243;50.888;4.724;2022-12-04T08:06:35;67.78;;;25.77;;
25301;SDS011;13243;50.888;4.724;2022-12-04T08:11:38;63.10;;;24.08;;
25301;SDS011;13243;50.888;4.724;2022-12-04T08:16:40;59.58;;;22.98;;
25301;SDS011;13243;50.888;4.724;2022-12-04T08:26:54;60.60;;;24.67;;
25301;SDS011;13243;50.888;4.724;2022-12-04T08:31:56;68.60;;;23.33;;
25301;SDS011;13243;50.888;4.724;2022-12-04T08:36:58;68.05;;;25.30;;
25301;SDS011;13243;50.888;4.724;2022-12-04T08:42:00;61.78;;;24.13;;
25301;SDS011;13243;50.888;4.724;2022-12-04T08:47:02;64.05;;;24.83;;
25301;SDS011;13243;50.888;4.724;2022-12-04T08:52:03;60.20;;;24.58;;
25301;SDS011;13243;50.888;4.724;2022-12-04T08:57:05;68.60;;;25.40;;
25301;SDS011;13243;50.888;4.724;2022-12-04T09:02:10;59.20;;;20.48;;
25301;SDS011;13243;50.888;4.724;2022-12-04T09:07:13;57.55;;;22.30;;
25301;SDS011;13243;50.888;4.724;2022-12-04T09:12:15;59.45;;;23.13;;
25301;SDS011;13243;50.888;4.724;2022-12-04T09:17:16;62.13;;;23.38;;
25301;SDS011;13243;50.888;4.724;2022-12-04T09:22:18;52.42;;;21.92;;
25301;SDS011;13243;50.888;4.724;2022-12-04T09:27:20;52.58;;;21.30;;
25301;SDS011;13243;50.888;4.724;2022-12-04T09:32:22;50.33;;;20.48;;
25301;SDS011;13243;50.888;4.724;2022-12-04T09:37:24;51.38;;;19.13;;
25301;SDS011;13243;50.888;4.724;2022-12-04T09:42:29;51.80;;;20.52;;
25301;SDS011;13243;50.888;4.724;2022-12-04T09:47:53;54.83;;;20.90;;
25301;SDS011;13243;50.888;4.724;2022-12-04T09:52:59;44.73;;;17.33;;
25301;SDS011;13243;50.888;4.724;2022-12-04T09:58:08;46.60;;;18.70;;
25301;SDS011;13243;50.888;4.724;2022-12-04T10:03:18;46.10;;;19.58;;
25301;SDS011;13243;50.888;4.724;2022-12-04T10:08:24;49.58;;;20.08;;
25301;SDS011;13243;50.888;4.724;2022-12-04T10:24:52;40.17;;;18.08;;
25301;SDS011;13243;50.888;4.724;2022-12-04T10:30:02;37.78;;;16.05;;
25301;SDS011;13243;50.888;4.724;2022-12-04T10:40:35;40.95;;;16.90;;
25301;SDS011;13243;50.888;4.724;2022-12-04T10:45:42;43.13;;;18.85;;
25301;SDS011;13243;50.888;4.724;2022-12-04T10:50:44;39.75;;;16.02;;
25301;SDS011;13243;50.888;4.724;2022-12-04T10:55:46;38.70;;;16.30;;
25301;SDS011;13243;50.888;4.724;2022-12-04T11:01:33;33.25;;;15.32;;
25301;SDS011;13243;50.888;4.724;2022-12-04T11:06:15;35.78;;;15.23;;
25301;SDS011;13243;50.888;4.724;2022-12-04T11:11:32;34.33;;;13.75;;
25301;SDS011;13243;50.888;4.724;2022-12-04T11:16:37;33.88;;;13.80;;
25301;SDS011;13243;50.888;4.724;2022-12-04T11:21:40;37.00;;;14.35;;
25301;SDS011;13243;50.888;4.724;2022-12-04T11:26:42;39.00;;;14.90;;
25301;SDS011;13243;50.888;4.724;2022-12-04T11:31:47;34.85;;;14.57;;
25301;SDS011;13243;50.888;4.724;2022-12-04T11:36:52;31.95;;;14.90;;
25301;SDS011;13243;50.888;4.724;2022-12-04T11:47:17;28.55;;;13.93;;
25301;SDS011;13243;50.888;4.724;2022-12-04T11:57:42;28.92;;;13.77;;
25301;SDS011;13243;50.888;4.724;2022-12-04T12:08:26;29.90;;;13.57;;
25301;SDS011;13243;50.888;4.724;2022-12-04T12:19:52;27.83;;;13.45;;
25301;SDS011;13243;50.888;4.724;2022-12-04T12:24:50;32.78;;;14.63;;
25301;SDS011;13243;50.888;4.724;2022-12-04T12:30:07;32.63;;;14.10;;
25301;SDS011;13243;50.888;4.724;2022-12-04T12:40:38;26.08;;;12.05;;
25301;SDS011;13243;50.888;4.724;2022-12-04T12:46:13;26.25;;;11.95;;
25301;SDS011;13243;50.888;4.724;2022-12-04T12:51:26;24.52;;;12.50;;
25301;SDS011;13243;50.888;4.724;2022-12-04T12:56:38;22.17;;;10.68;;
25301;SDS011;13243;50.888;4.724;2022-12-04T13:01:52;20.92;;;10.35;;
25301;SDS011;13243;50.888;4.724;2022-12-04T13:07:23;23.10;;;12.00;;
25301;SDS011;13243;50.888;4.724;2022-12-04T13:12:42;24.05;;;11.90;;
25301;SDS011;13243;50.888;4.724;2022-12-04T13:17:48;22.42;;;11.13;;
25301;SDS011;13243;50.888;4.724;2022-12-04T13:28:25;23.13;;;11.68;;
25301;SDS011;13243;50.888;4.724;2022-12-04T13:34:17;21.48;;;10.77;;
25301;SDS011;13243;50.888;4.724;2022-12-04T13:39:32;22.70;;;10.68;;
25301;SDS011;13243;50.888;4.724;2022-12-04T13:44:41;29.65;;;12.25;;
25301;SDS011;13243;50.888;4.724;2022-12-04T13:49:43;24.15;;;11.98;;
25301;SDS011;13243;50.888;4.724;2022-12-04T13:54:56;26.27;;;12.07;;
25301;SDS011;13243;50.888;4.724;2022-12-04T14:00:06;25.73;;;11.73;;
25301;SDS011;13243;50.888;4.724;2022-12-04T14:05:39;17.75;;;9.38;;
25301;SDS011;13243;50.888;4.724;2022-12-04T14:10:43;24.55;;;11.98;;
25301;SDS011;13243;50.888;4.724;2022-12-04T14:21:23;25.02;;;12.38;;
25301;SDS011;13243;50.888;4.724;2022-12-04T14:26:26;26.83;;;13.05;;
25301;SDS011;13243;50.888;4.724;2022-12-04T14:31:51;28.40;;;12.77;;
25301;SDS011;13243;50.888;4.724;2022-12-04T14:36:55;25.67;;;12.35;;
25301;SDS011;13243;50.888;4.724;2022-12-04T14:42:05;30.23;;;13.25;;
25301;SDS011;13243;50.888;4.724;2022-12-04T14:52:44;27.67;;;12.45;;
25301;SDS011;13243;50.888;4.724;2022-12-04T14:58:00;24.63;;;12.95;;
25301;SDS011;13243;50.888;4.724;2022-12-04T15:03:23;26.73;;;12.98;;
25301;SDS011;13243;50.888;4.724;2022-12-04T15:08:27;30.83;;;13.50;;
25301;SDS011;13243;50.888;4.724;2022-12-04T15:13:34;28.98;;;13.85;;
25301;SDS011;13243;50.888;4.724;2022-12-04T15:18:37;31.17;;;13.65;;
25301;SDS011;13243;50.888;4.724;2022-12-04T15:23:40;28.35;;;14.45;;
25301;SDS011;13243;50.888;4.724;2022-12-04T15:33:54;19.05;;;10.13;;
25301;SDS011;13243;50.888;4.724;2022-12-04T15:38:58;31.10;;;15.45;;
25301;SDS011;13243;50.888;4.724;2022-12-04T15:44:20;34.33;;;14.48;;
25301;SDS011;13243;50.888;4.724;2022-12-04T15:49:29;28.55;;;15.10;;
25301;SDS011;13243;50.888;4.724;2022-12-04T15:54:32;29.35;;;14.40;;
25301;SDS011;13243;50.888;4.724;2022-12-04T15:59:36;32.08;;;15.38;;
25301;SDS011;13243;50.888;4.724;2022-12-04T16:04:38;29.88;;;14.95;;
25301;SDS011;13243;50.888;4.724;2022-12-04T16:09:53;31.17;;;15.52;;
25301;SDS011;13243;50.888;4.724;2022-12-04T16:15:04;29.70;;;15.00;;
25301;SDS011;13243;50.888;4.724;2022-12-04T16:20:06;34.35;;;16.02;;
25301;SDS011;13243;50.888;4.724;2022-12-04T16:25:11;28.95;;;14.38;;
25301;SDS011;13243;50.888;4.724;2022-12-04T16:30:13;27.35;;;14.13;;
25301;SDS011;13243;50.888;4.724;2022-12-04T16:35:16;29.13;;;14.82;;
25301;SDS011;13243;50.888;4.724;2022-12-04T16:40:18;31.20;;;15.18;;
25301;SDS011;13243;50.888;4.724;2022-12-04T16:45:30;28.90;;;14.13;;
25301;SDS011;13243;50.888;4.724;2022-12-04T16:50:33;35.55;;;14.80;;
25301;SDS011;13243;50.888;4.724;2022-12-04T16:55:37;26.33;;;13.32;;
25301;SDS011;13243;50.888;4.724;2022-12-04T17:00:39;34.38;;;15.23;;
25301;SDS011;13243;50.888;4.724;2022-12-04T17:05:45;32.95;;;15.30;;
25301;SDS011;13243;50.888;4.724;2022-12-04T17:10:47;30.58;;;16.52;;
25301;SDS011;13243;50.888;4.724;2022-12-04T17:15:50;32.22;;;15.88;;
25301;SDS011;13243;50.888;4.724;2022-12-04T17:20:51;32.60;;;17.20;;
25301;SDS011;13243;50.888;4.724;2022-12-04T17:25:53;29.92;;;15.57;;
25301;SDS011;13243;50.888;4.724;2022-12-04T17:30:55;29.95;;;14.77;;
25301;SDS011;13243;50.888;4.724;2022-12-04T17:35:58;35.95;;;15.85;;
25301;SDS011;13243;50.888;4.724;2022-12-04T17:41:00;32.97;;;16.00;;
25301;SDS011;13243;50.888;4.724;2022-12-04T17:46:08;32.75;;;15.73;;
25301;SDS011;13243;50.888;4.724;2022-12-04T17:51:12;38.30;;;16.48;;
25301;SDS011;13243;50.888;4.724;2022-12-04T17:56:20;32.75;;;15.77;;
25301;SDS011;13243;50.888;4.724;2022-12-04T18:01:24;35.88;;;16.27;;
25301;SDS011;13243;50.888;4.724;2022-12-04T18:06:28;37.70;;;17.05;;
25301;SDS011;13243;50.888;4.724;2022-12-04T18:11:35;34.70;;;15.90;;
25301;SDS011;13243;50.888;4.724;2022-12-04T18:16:39;35.35;;;16.50;;
25301;SDS011;13243;50.888;4.724;2022-12-04T18:21:43;38.33;;;18.10;;
25301;SDS011;13243;50.888;4.724;2022-12-04T18:26:46;41.53;;;18.25;;
25301;SDS011;13243;50.888;4.724;2022-12-04T18:31:49;44.80;;;19.00;;
25301;SDS011;13243;50.888;4.724;2022-12-04T18:36:51;44.65;;;20.25;;
25301;SDS011;13243;50.888;4.724;2022-12-04T18:41:54;39.42;;;17.95;;
25301;SDS011;13243;50.888;4.724;2022-12-04T18:46:57;46.78;;;19.90;;
25301;SDS011;13243;50.888;4.724;2022-12-04T18:51:59;47.42;;;20.33;;
25301;SDS011;13243;50.888;4.724;2022-12-04T18:57:00;49.15;;;19.20;;
25301;SDS011;13243;50.888;4.724;2022-12-04T19:02:03;46.85;;;20.08;;
25301;SDS011;13243;50.888;4.724;2022-12-04T19:07:05;44.83;;;18.25;;
25301;SDS011;13243;50.888;4.724;2022-12-04T19:12:07;47.60;;;19.98;;
25301;SDS011;13243;50.888;4.724;2022-12-04T19:17:09;53.78;;;20.05;;
25301;SDS011;13243;50.888;4.724;2022-12-04T19:22:11;51.00;;;19.88;;
25301;SDS011;13243;50.888;4.724;2022-12-04T19:27:14;45.08;;;18.98;;
25301;SDS011;13243;50.888;4.724;2022-12-04T19:32:15;50.72;;;20.35;;
25301;SDS011;13243;50.888;4.724;2022-12-04T19:37:17;44.25;;;18.42;;
25301;SDS011;13243;50.888;4.724;2022-12-04T19:42:20;43.78;;;19.63;;
25301;SDS011;13243;50.888;4.724;2022-12-04T19:47:22;43.75;;;18.65;;
25301;SDS011;13243;50.888;4.724;2022-12-04T19:52:25;46.63;;;19.77;;
25301;SDS011;13243;50.888;4.724;2022-12-04T19:57:27;49.05;;;19.05;;
25301;SDS011;13243;50.888;4.724;2022-12-04T20:02:29;48.88;;;19.92;;
25301;SDS011;13243;50.888;4.724;2022-12-04T20:07:32;52.97;;;19.67;;
25301;SDS011;13243;50.888;4.724;2022-12-04T20:12:37;50.55;;;19.25;;
25301;SDS011;13243;50.888;4.724;2022-12-04T20:17:40;56.55;;;19.75;;
25301;SDS011;13243;50.888;4.724;2022-12-04T20:22:42;50.20;;;19.58;;
25301;SDS011;13243;50.888;4.724;2022-12-04T20:27:44;53.15;;;19.25;;
25301;SDS011;13243;50.888;4.724;2022-12-04T20:32:46;52.10;;;19.85;;
25301;SDS011;13243;50.888;4.724;2022-12-04T20:37:48;53.92;;;19.55;;
25301;SDS011;13243;50.888;4.724;2022-12-04T20:42:50;49.75;;;19.95;;
25301;SDS011;13243;50.888;4.724;2022-12-04T20:47:53;62.35;;;21.42;;
25301;SDS011;13243;50.888;4.724;2022-12-04T20:52:55;56.72;;;21.23;;
25301;SDS011;13243;50.888;4.724;2022-12-04T20:57:58;61.40;;;23.17;;
25301;SDS011;13243;50.888;4.724;2022-12-04T21:03:01;65.35;;;23.98;;
25301;SDS011;13243;50.888;4.724;2022-12-04T21:08:03;60.15;;;24.95;;
25301;SDS011;13243;50.888;4.724;2022-12-04T21:13:05;65.60;;;25.23;;
25301;SDS011;13243;50.888;4.724;2022-12-04T21:18:25;49.88;;;19.65;;
25301;SDS011;13243;50.888;4.724;2022-12-04T21:23:27;70.40;;;26.38;;
25301;SDS011;13243;50.888;4.724;2022-12-04T21:28:29;67.90;;;26.70;;
25301;SDS011;13243;50.888;4.724;2022-12-04T21:33:32;67.57;;;26.83;;
25301;SDS011;13243;50.888;4.724;2022-12-04T21:38:35;65.03;;;26.73;;
25301;SDS011;13243;50.888;4.724;2022-12-04T21:43:37;72.60;;;27.20;;
25301;SDS011;13243;50.888;4.724;2022-12-04T21:48:39;90.97;;;28.77;;
25301;SDS011;13243;50.888;4.724;2022-12-04T21:53:41;76.65;;;30.50;;
25301;SDS011;13243;50.888;4.724;2022-12-04T21:58:43;71.57;;;28.35;;
25301;SDS011;13243;50.888;4.724;2022-12-04T22:03:45;78.43;;;28.45;;
25301;SDS011;13243;50.888;4.724;2022-12-04T22:08:47;71.57;;;27.25;;
25301;SDS011;13243;50.888;4.724;2022-12-04T22:13:49;77.78;;;28.55;;
25301;SDS011;13243;50.888;4.724;2022-12-04T22:18:54;71.47;;;28.63;;
25301;SDS011;13243;50.888;4.724;2022-12-04T22:23:58;67.97;;;27.83;;
25301;SDS011;13243;50.888;4.724;2022-12-04T22:29:01;71.65;;;29.25;;
25301;SDS011;13243;50.888;4.724;2022-12-04T22:34:24;71.75;;;28.58;;
25301;SDS011;13243;50.888;4.724;2022-12-04T22:39:26;76.55;;;29.73;;
25301;SDS011;13243;50.888;4.724;2022-12-04T22:44:27;74.10;;;28.90;;
25301;SDS011;13243;50.888;4.724;2022-12-04T22:49:29;80.07;;;31.48;;
25301;SDS011;13243;50.888;4.724;2022-12-04T22:54:31;74.43;;;29.05;;
25301;SDS011;13243;50.888;4.724;2022-12-04T22:59:33;79.53;;;28.63;;
25301;SDS011;13243;50.888;4.724;2022-12-04T23:04:34;67.47;;;28.38;;
25301;SDS011;13243;50.888;4.724;2022-12-04T23:09:37;76.15;;;30.13;;
25301;SDS011;13243;50.888;4.724;2022-12-04T23:14:39;81.10;;;29.48;;
25301;SDS011;13243;50.888;4.724;2022-12-04T23:19:41;76.60;;;29.02;;
25301;SDS011;13243;50.888;4.724;2022-12-04T23:24:43;82.32;;;28.50;;
25301;SDS011;13243;50.888;4.724;2022-12-04T23:29:45;74.03;;;27.58;;
25301;SDS011;13243;50.888;4.724;2022-12-04T23:34:54;74.57;;;27.17;;
25301;SDS011;13243;50.888;4.724;2022-12-04T23:39:56;79.18;;;26.88;;
25301;SDS011;13243;50.888;4.724;2022-12-04T23:44:58;73.72;;;27.27;;
25301;SDS011;13243;50.888;4.724;2022-12-04T23:50:00;92.50;;;28.15;;
25301;SDS011;13243;50.888;4.724;2022-12-04T23:55:02;81.38;;;29.15;;
